createdAt,value
2017-11-30T00:00:02.319Z,100017.34
2017-11-30T00:02:28.885Z,100007.01
2017-11-30T00:04:54.676Z,100006.35
2017-11-30T00:07:20.462Z,100007.09
2017-11-30T00:09:47.162Z,100006.87
2017-11-30T00:12:13.924Z,100004.67
2017-11-30T00:14:40.689Z,100006.41
2017-11-30T00:17:06.456Z,99997.91
2017-11-30T00:19:32.224Z,99997.48
2017-11-30T00:21:58.955Z,99992.01
2017-11-30T00:24:25.792Z,99979.63
2017-11-30T00:26:52.504Z,99982.11
2017-11-30T00:29:19.235Z,99981.86
2017-11-30T00:31:45.972Z,99971.98
2017-11-30T00:34:12.769Z,99967.23
2017-11-30T00:36:38.548Z,99964.73
2017-11-30T00:39:05.330Z,99973.02
2017-11-30T00:41:31.113Z,99971.70
2017-11-30T00:44:03.085Z,99974.61
2017-11-30T00:46:29.817Z,99971.97
2017-11-30T00:48:55.656Z,99973.64
2017-11-30T00:51:21.440Z,99973.22
2017-11-30T00:53:47.214Z,99974.84
2017-11-30T00:56:14.045Z,99968.33
2017-11-30T00:58:40.750Z,99971.63
2017-11-30T01:01:07.497Z,99963.16
2017-11-30T01:03:34.183Z,99964.71
2017-11-30T01:05:59.973Z,99957.27
2017-11-30T01:08:25.757Z,99957.50
2017-11-30T01:10:52.374Z,99952.79
2017-11-30T01:13:19.140Z,99954.70
2017-11-30T01:15:44.907Z,99954.92
2017-11-30T01:18:11.589Z,99956.47
2017-11-30T01:20:38.335Z,99964.31
2017-11-30T01:23:05.082Z,99962.37
2017-11-30T01:25:30.856Z,99962.97
2017-11-30T01:27:57.453Z,99963.34
2017-11-30T01:30:23.237Z,99964.73
2017-11-30T01:32:49.016Z,99960.94
2017-11-30T01:35:14.796Z,99962.91
2017-11-30T01:37:40.573Z,99959.30
2017-11-30T01:40:06.343Z,99961.31
2017-11-30T01:42:32.112Z,99955.89
2017-11-30T01:44:57.887Z,99963.08
2017-11-30T01:47:24.592Z,99954.11
2017-11-30T01:49:50.373Z,99954.27
2017-11-30T01:52:16.158Z,99954.53
2017-11-30T01:54:41.966Z,99955.83
2017-11-30T01:57:07.745Z,99954.09
2017-11-30T01:59:33.525Z,99953.83
2017-11-30T02:01:59.360Z,99951.05
2017-11-30T02:04:25.146Z,99950.19
2017-11-30T02:06:50.928Z,99954.48
2017-11-30T02:09:16.701Z,99954.30
2017-11-30T02:11:43.356Z,99947.69
2017-11-30T02:14:09.128Z,99945.12
2017-11-30T02:16:34.901Z,99947.84
2017-11-30T02:19:00.674Z,99945.81
2017-11-30T02:21:26.473Z,99949.09
2017-11-30T02:23:53.237Z,99943.66
2017-11-30T02:26:19.012Z,99939.97
2017-11-30T02:28:45.901Z,99939.67
2017-11-30T02:31:11.684Z,99936.77
2017-11-30T02:33:37.477Z,99936.70
2017-11-30T02:36:03.272Z,99931.92
2017-11-30T02:38:29.214Z,99925.05
2017-11-30T02:40:55.005Z,99924.83
2017-11-30T02:43:20.801Z,99934.55
2017-11-30T02:45:46.657Z,99933.22
2017-11-30T02:48:12.483Z,99926.38
2017-11-30T02:50:38.306Z,99933.37
2017-11-30T02:53:04.126Z,99925.45
2017-11-30T02:55:29.949Z,99923.84
2017-11-30T02:57:55.720Z,99924.48
2017-11-30T03:00:22.429Z,99928.84
2017-11-30T03:02:48.215Z,99914.02
2017-11-30T03:05:14.036Z,99914.15
2017-11-30T03:07:39.809Z,99916.89
2017-11-30T03:10:06.516Z,99915.55
2017-11-30T03:12:32.322Z,99915.05
2017-11-30T03:14:58.373Z,99916.63
2017-11-30T03:17:24.193Z,99909.84
2017-11-30T03:19:50.017Z,99912.22
2017-11-30T03:22:15.830Z,99911.00
2017-11-30T03:24:41.629Z,99904.69
2017-11-30T03:27:07.450Z,99906.38
2017-11-30T03:29:33.253Z,99905.08
2017-11-30T03:31:59.933Z,99905.96
2017-11-30T03:34:25.720Z,99907.28
2017-11-30T03:36:51.526Z,99907.15
2017-11-30T03:39:17.308Z,99900.08
2017-11-30T03:41:43.094Z,99908.78
2017-11-30T03:44:08.869Z,99901.58
2017-11-30T03:46:34.647Z,99913.14
2017-11-30T03:49:00.449Z,99908.73
2017-11-30T03:51:27.224Z,99909.77
2017-11-30T03:53:52.999Z,99911.22
2017-11-30T03:56:18.764Z,99904.79
2017-11-30T03:58:44.546Z,99902.07
2017-11-30T04:01:10.328Z,99905.57
2017-11-30T04:03:36.102Z,99898.59
2017-11-30T04:06:01.892Z,99898.59
2017-11-30T04:08:27.669Z,99900.05
2017-11-30T04:10:53.440Z,99901.68
2017-11-30T04:13:20.224Z,99900.02
2017-11-30T04:15:46.000Z,99903.81
2017-11-30T04:18:11.813Z,99895.83
2017-11-30T04:20:37.620Z,99903.11
2017-11-30T04:23:03.409Z,99907.80
2017-11-30T04:25:29.218Z,99910.36
2017-11-30T04:27:55.808Z,99908.11
2017-11-30T04:30:22.598Z,99900.92
2017-11-30T04:32:48.377Z,99909.01
2017-11-30T04:35:15.076Z,99908.10
2017-11-30T04:37:40.864Z,99907.33
2017-11-30T04:40:06.634Z,99902.20
2017-11-30T04:42:33.329Z,99905.18
2017-11-30T04:44:59.110Z,99904.73
2017-11-30T04:47:25.869Z,99908.98
2017-11-30T04:49:52.494Z,99905.48
2017-11-30T04:52:18.273Z,99902.56
2017-11-30T04:54:44.893Z,99908.44
2017-11-30T04:57:11.630Z,99904.38
2017-11-30T04:59:37.418Z,99899.99
2017-11-30T05:02:03.228Z,99894.40
2017-11-30T05:04:29.000Z,99898.67
2017-11-30T05:06:55.690Z,99900.23
2017-11-30T05:09:21.470Z,99886.36
2017-11-30T05:11:47.270Z,99883.70
2017-11-30T05:14:13.045Z,99880.84
2017-11-30T05:16:38.911Z,99879.03
2017-11-30T05:19:04.679Z,99879.83
2017-11-30T05:21:30.459Z,99879.11
2017-11-30T05:23:56.238Z,99884.08
2017-11-30T05:26:22.038Z,99885.56
2017-11-30T05:28:47.821Z,99885.64
2017-11-30T05:31:13.604Z,99885.84
2017-11-30T05:33:39.371Z,99884.70
2017-11-30T05:36:05.140Z,99892.58
2017-11-30T05:38:31.953Z,99890.45
2017-11-30T05:40:57.748Z,99883.12
2017-11-30T05:43:23.521Z,99888.16
2017-11-30T05:45:49.300Z,99882.66
2017-11-30T05:48:15.068Z,99883.59
2017-11-30T05:50:40.872Z,99885.45
2017-11-30T05:53:06.645Z,99884.70
2017-11-30T05:55:32.429Z,99883.80
2017-11-30T05:57:58.209Z,99880.53
2017-11-30T06:00:23.985Z,99879.83
2017-11-30T06:02:49.773Z,99884.58
2017-11-30T06:05:15.552Z,99887.81
2017-11-30T06:07:41.320Z,99888.83
2017-11-30T06:10:07.097Z,99887.27
2017-11-30T06:12:32.883Z,99890.12
2017-11-30T06:14:58.658Z,99885.53
2017-11-30T06:17:25.434Z,99886.91
2017-11-30T06:19:52.306Z,99881.98
2017-11-30T06:22:18.082Z,99881.34
2017-11-30T06:24:44.083Z,99879.31
2017-11-30T06:27:09.863Z,99881.08
2017-11-30T06:29:35.642Z,99882.58
2017-11-30T06:32:01.429Z,99882.50
2017-11-30T06:34:27.205Z,99879.45
2017-11-30T06:36:53.009Z,99884.19
2017-11-30T06:39:18.780Z,99876.62
2017-11-30T06:41:44.618Z,99876.49
2017-11-30T06:44:10.417Z,99878.20
2017-11-30T06:46:36.241Z,99874.29
2017-11-30T06:49:03.082Z,99884.96
2017-11-30T06:51:28.913Z,99884.91
2017-11-30T06:53:54.731Z,99883.52
2017-11-30T06:56:20.650Z,99886.73
2017-11-30T06:58:46.479Z,99891.39
2017-11-30T07:01:12.258Z,99891.96
2017-11-30T07:03:38.066Z,99893.87
2017-11-30T07:06:03.841Z,99895.30
2017-11-30T07:08:29.616Z,99900.15
2017-11-30T07:10:55.393Z,99895.28
2017-11-30T07:13:21.209Z,99899.58
2017-11-30T07:15:47.020Z,99893.31
2017-11-30T07:18:12.809Z,99896.23
2017-11-30T07:20:38.597Z,99892.79
2017-11-30T07:23:04.376Z,99894.81
2017-11-30T07:25:30.178Z,99898.00
2017-11-30T07:27:56.984Z,99897.33
2017-11-30T07:30:22.804Z,99894.06
2017-11-30T07:32:49.419Z,99898.34
2017-11-30T07:35:16.277Z,99899.99
2017-11-30T07:37:42.088Z,99893.77
2017-11-30T07:40:08.571Z,99896.96
2017-11-30T07:42:35.345Z,99892.95
2017-11-30T07:45:02.125Z,99899.63
2017-11-30T07:47:27.917Z,99895.98
2017-11-30T07:49:54.572Z,99908.03
2017-11-30T07:52:20.353Z,99906.87
2017-11-30T07:54:47.093Z,99904.14
2017-11-30T07:57:12.913Z,99898.33
2017-11-30T07:59:39.550Z,99900.46
2017-11-30T08:02:05.462Z,99892.01
2017-11-30T08:04:31.252Z,99887.37
2017-11-30T08:06:57.868Z,99886.49
2017-11-30T08:09:24.737Z,99887.11
2017-11-30T08:11:50.559Z,99885.59
2017-11-30T08:14:17.399Z,99887.50
2017-11-30T08:16:43.205Z,99888.69
2017-11-30T08:19:09.673Z,99881.36
2017-11-30T08:21:35.475Z,99888.00
2017-11-30T08:24:02.192Z,99884.42
2017-11-30T08:26:28.987Z,99883.27
2017-11-30T08:28:54.794Z,99883.72
2017-11-30T08:31:21.002Z,99883.38
2017-11-30T08:33:47.688Z,99881.13
2017-11-30T08:36:14.470Z,99882.45
2017-11-30T08:38:40.253Z,99879.03
2017-11-30T08:41:06.042Z,99880.82
2017-11-30T08:43:31.822Z,99881.95
2017-11-30T08:45:58.557Z,99877.68
2017-11-30T08:48:24.334Z,99882.86
2017-11-30T08:50:52.209Z,99875.84
2017-11-30T08:53:17.981Z,99877.79
2017-11-30T08:55:43.749Z,99874.83
2017-11-30T08:58:09.565Z,99874.52
2017-11-30T09:00:35.355Z,99873.84
2017-11-30T09:03:01.329Z,99878.17
2017-11-30T09:05:27.112Z,99884.13
2017-11-30T09:07:53.913Z,99885.83
2017-11-30T09:10:20.652Z,99890.53
2017-11-30T09:12:46.486Z,99891.52
2017-11-30T09:15:12.308Z,99887.77
2017-11-30T09:17:38.086Z,99885.72
2017-11-30T09:20:03.867Z,99888.25
2017-11-30T09:22:29.694Z,99886.44
2017-11-30T09:24:55.476Z,99884.77
2017-11-30T09:27:21.246Z,99886.05
2017-11-30T09:29:47.866Z,99886.14
2017-11-30T09:32:13.654Z,99881.16
2017-11-30T09:34:39.445Z,99884.08
2017-11-30T09:37:05.242Z,99886.56
2017-11-30T09:39:31.054Z,99881.48
2017-11-30T09:41:56.822Z,99876.08
2017-11-30T09:44:22.617Z,99881.66
2017-11-30T09:46:48.404Z,99882.52
2017-11-30T09:49:15.173Z,99880.34
2017-11-30T09:51:40.965Z,99875.68
2017-11-30T09:54:06.754Z,99881.11
2017-11-30T09:56:32.593Z,99876.23
2017-11-30T09:58:58.436Z,99877.20
2017-11-30T10:01:24.228Z,99876.84
2017-11-30T10:03:49.989Z,99876.83
2017-11-30T10:06:15.844Z,99881.75
2017-11-30T10:08:41.621Z,99879.08
2017-11-30T10:11:07.391Z,99881.77
2017-11-30T10:13:33.177Z,99882.67
2017-11-30T10:15:58.965Z,99879.22
2017-11-30T10:18:24.738Z,99875.36
2017-11-30T10:20:50.516Z,99879.55
2017-11-30T10:23:16.285Z,99881.17
2017-11-30T10:25:42.061Z,99884.44
2017-11-30T10:28:07.843Z,99876.77
2017-11-30T10:30:33.625Z,99878.70
2017-11-30T10:32:59.440Z,99874.69
2017-11-30T10:35:25.576Z,99873.94
2017-11-30T10:37:52.215Z,99874.36
2017-11-30T10:40:18.057Z,99870.76
2017-11-30T10:42:44.803Z,99872.33
2017-11-30T10:45:11.518Z,99877.95
2017-11-30T10:47:38.345Z,99878.37
2017-11-30T10:50:05.056Z,99878.37
2017-11-30T10:52:31.843Z,99879.16
2017-11-30T10:54:58.661Z,99873.22
2017-11-30T10:57:31.416Z,99871.69
2017-11-30T10:59:58.074Z,99877.94
2017-11-30T11:02:24.825Z,99877.66
2017-11-30T11:04:50.646Z,99880.97
2017-11-30T11:07:16.426Z,99883.48
2017-11-30T11:09:43.058Z,99882.25
2017-11-30T11:12:09.779Z,99885.33
2017-11-30T11:14:35.598Z,99891.94
2017-11-30T11:17:01.520Z,99885.55
2017-11-30T11:19:27.300Z,99890.66
2017-11-30T11:21:54.015Z,99888.62
2017-11-30T11:24:19.799Z,99889.86
2017-11-30T11:26:46.529Z,99887.11
2017-11-30T11:29:12.304Z,99890.69
2017-11-30T11:31:38.895Z,99888.55
2017-11-30T11:34:04.669Z,99890.30
2017-11-30T11:36:31.316Z,99888.34
2017-11-30T11:38:57.875Z,99884.79
2017-11-30T11:41:23.797Z,99883.67
2017-11-30T11:43:50.414Z,99879.80
2017-11-30T11:46:17.181Z,99874.88
2017-11-30T11:48:42.980Z,99879.13
2017-11-30T11:51:09.729Z,99874.39
2017-11-30T11:53:35.539Z,99865.95
2017-11-30T11:56:01.318Z,99861.64
2017-11-30T11:58:27.929Z,99857.85
2017-11-30T12:00:53.703Z,99861.03
2017-11-30T12:03:20.474Z,99851.53
2017-11-30T12:05:47.256Z,99840.87
2017-11-30T12:08:13.041Z,99841.31
2017-11-30T12:10:38.879Z,99840.73
2017-11-30T12:13:04.658Z,99835.82
2017-11-30T12:15:31.489Z,99835.86
2017-11-30T12:17:57.264Z,99836.61
2017-11-30T12:20:23.907Z,99838.97
2017-11-30T12:22:49.693Z,99837.48
2017-11-30T12:25:15.654Z,99841.11
2017-11-30T12:27:42.370Z,99840.70
2017-11-30T12:30:09.258Z,99842.64
2017-11-30T12:32:35.029Z,99835.74
2017-11-30T12:35:00.822Z,99834.79
2017-11-30T12:37:27.400Z,99833.17
2017-11-30T12:39:53.177Z,99832.77
2017-11-30T12:42:18.949Z,99834.70
2017-11-30T12:44:45.741Z,99831.70
2017-11-30T12:47:11.512Z,99824.05
2017-11-30T12:49:37.329Z,99831.31
2017-11-30T12:52:03.949Z,99827.23
2017-11-30T12:54:29.729Z,99822.15
2017-11-30T12:56:56.474Z,99819.80
2017-11-30T12:59:22.267Z,99823.47
2017-11-30T13:01:48.044Z,99823.25
2017-11-30T13:04:13.843Z,99820.61
2017-11-30T13:06:40.400Z,99821.02
2017-11-30T13:09:07.288Z,99818.80
2017-11-30T13:11:34.080Z,99830.11
2017-11-30T13:14:00.816Z,99821.48
2017-11-30T13:16:26.614Z,99828.70
2017-11-30T13:18:52.411Z,99821.94
2017-11-30T13:21:18.200Z,99823.67
2017-11-30T13:23:44.889Z,99826.77
2017-11-30T13:26:10.681Z,99826.81
2017-11-30T13:28:36.464Z,99818.75
2017-11-30T13:31:02.268Z,99826.77
2017-11-30T13:33:28.042Z,99820.11
2017-11-30T13:35:53.825Z,99818.43
2017-11-30T13:38:19.598Z,99825.08
2017-11-30T13:40:46.203Z,99825.89
2017-11-30T13:43:11.975Z,99819.66
2017-11-30T13:45:37.779Z,99822.60
2017-11-30T13:48:04.399Z,99821.31
2017-11-30T13:50:30.168Z,99821.57
2017-11-30T13:52:55.954Z,99819.04
2017-11-30T13:55:21.732Z,99817.98
2017-11-30T13:57:47.557Z,99820.45
2017-11-30T14:00:13.335Z,99825.41
2017-11-30T14:02:39.164Z,99818.84
2017-11-30T14:05:04.941Z,99828.89
2017-11-30T14:07:30.711Z,99824.46
2017-11-30T14:09:56.488Z,99828.92
2017-11-30T14:12:22.259Z,99831.48
2017-11-30T14:14:48.063Z,99832.56
2017-11-30T14:17:13.833Z,99832.73
2017-11-30T14:19:39.599Z,99828.89
2017-11-30T14:22:05.368Z,99820.63
2017-11-30T14:24:31.139Z,99833.43
2017-11-30T14:26:56.925Z,99835.08
2017-11-30T14:29:23.540Z,99833.47
2017-11-30T14:31:50.244Z,99833.92
2017-11-30T14:34:17.023Z,99837.94
2017-11-30T14:36:42.973Z,99847.15
2017-11-30T14:39:08.748Z,99854.66
2017-11-30T14:41:34.546Z,99858.51
2017-11-30T14:44:01.308Z,99850.66
2017-11-30T14:46:28.047Z,99853.34
2017-11-30T14:48:53.811Z,99862.34
2017-11-30T14:51:19.586Z,99866.48
2017-11-30T14:53:45.396Z,99862.38
2017-11-30T14:56:11.170Z,99866.14
2017-11-30T14:58:36.980Z,99868.47
2017-11-30T15:01:03.808Z,99870.45
2017-11-30T15:03:29.583Z,99875.28
2017-11-30T15:05:55.363Z,99873.21
2017-11-30T15:08:21.139Z,99877.46
2017-11-30T15:10:46.927Z,99874.23
2017-11-30T15:13:12.715Z,99876.05
2017-11-30T15:15:38.565Z,99877.42
2017-11-30T15:18:04.348Z,99877.83
2017-11-30T15:20:30.156Z,99884.98
2017-11-30T15:22:55.932Z,99894.33
2017-11-30T15:25:22.689Z,99893.77
2017-11-30T15:27:48.462Z,99896.39
2017-11-30T15:30:14.231Z,99897.34
2017-11-30T15:32:40.018Z,99898.16
2017-11-30T15:35:05.795Z,99901.94
2017-11-30T15:37:31.605Z,99904.32
2017-11-30T15:39:57.372Z,99907.77
2017-11-30T15:42:23.147Z,99905.61
2017-11-30T15:44:48.927Z,99905.88
2017-11-30T15:47:14.706Z,99910.05
2017-11-30T15:49:40.487Z,99906.78
2017-11-30T15:52:06.273Z,99908.86
2017-11-30T15:54:32.091Z,99911.69
2017-11-30T15:56:57.856Z,99920.17
2017-11-30T15:59:23.639Z,99915.85
2017-11-30T16:01:49.424Z,99917.08
2017-11-30T16:04:16.038Z,99909.61
2017-11-30T16:06:42.763Z,99914.84
2017-11-30T16:09:08.613Z,99920.19
2017-11-30T16:11:35.289Z,99919.88
2017-11-30T16:14:02.075Z,99931.81
2017-11-30T16:16:28.803Z,99932.93
2017-11-30T16:18:55.588Z,99937.86
2017-11-30T16:21:22.318Z,99942.02
2017-11-30T16:23:49.062Z,99942.05
2017-11-30T16:26:15.799Z,99941.66
2017-11-30T16:28:41.570Z,99953.55
2017-11-30T16:31:07.379Z,99953.97
2017-11-30T16:33:34.067Z,99956.66
2017-11-30T16:35:59.843Z,99951.49
2017-11-30T16:38:26.175Z,99953.91
2017-11-30T16:40:51.980Z,99958.53
2017-11-30T16:43:18.719Z,99968.66
2017-11-30T16:45:44.494Z,99965.03
2017-11-30T16:48:11.262Z,99961.34
2017-11-30T16:50:37.050Z,99969.81
2017-11-30T16:53:03.820Z,99976.34
2017-11-30T16:55:29.599Z,99977.49
2017-11-30T16:57:56.363Z,99976.17
2017-11-30T17:00:23.128Z,99976.74
2017-11-30T17:02:49.880Z,99976.33
2017-11-30T17:05:16.611Z,99983.13
2017-11-30T17:07:43.268Z,99990.28
2017-11-30T17:10:10.076Z,99988.40
2017-11-30T17:12:36.849Z,99994.02
2017-11-30T17:15:02.651Z,99998.25
2017-11-30T17:17:28.427Z,99990.67
2017-11-30T17:19:55.207Z,99997.00
2017-11-30T17:22:20.987Z,100000.09
2017-11-30T17:24:47.700Z,99996.67
2017-11-30T17:27:13.530Z,100000.49
2017-11-30T17:29:40.138Z,100004.52
2017-11-30T17:32:05.923Z,99998.42
2017-11-30T17:34:31.723Z,100003.83
2017-11-30T17:36:58.358Z,100003.80
2017-11-30T17:39:24.125Z,100002.34
2017-11-30T17:41:50.875Z,100012.80
2017-11-30T17:44:16.646Z,100013.03
2017-11-30T17:46:42.418Z,100025.27
2017-11-30T17:49:09.147Z,100022.12
2017-11-30T17:51:34.930Z,100026.59
2017-11-30T17:54:00.838Z,100020.50
2017-11-30T17:56:27.618Z,100024.38
2017-11-30T17:58:54.309Z,100026.17
2017-11-30T18:01:20.095Z,100035.51
2017-11-30T18:03:45.874Z,100029.36
2017-11-30T18:06:11.646Z,100035.56
2017-11-30T18:08:37.420Z,100034.06
2017-11-30T18:11:03.197Z,100031.97
2017-11-30T18:13:28.971Z,100034.89
2017-11-30T18:15:54.883Z,100034.25
2017-11-30T18:18:20.664Z,100040.22
2017-11-30T18:20:46.487Z,100044.19
2017-11-30T18:23:12.255Z,100056.58
2017-11-30T18:25:38.041Z,100053.58
2017-11-30T18:28:03.816Z,100057.80
2017-11-30T18:30:29.632Z,100057.66
2017-11-30T18:32:55.412Z,100053.47
2017-11-30T18:35:21.187Z,100051.58
2017-11-30T18:37:46.999Z,100051.19
2017-11-30T18:40:13.640Z,100053.83
2017-11-30T18:42:39.423Z,100063.00
2017-11-30T18:45:05.211Z,100057.99
2017-11-30T18:47:30.999Z,100062.52
2017-11-30T18:49:56.816Z,100063.22
2017-11-30T18:52:22.603Z,100063.14
2017-11-30T18:54:48.479Z,100053.42
2017-11-30T18:57:14.309Z,100063.66
2017-11-30T18:59:40.084Z,100063.08
2017-11-30T19:02:05.859Z,100065.78
2017-11-30T19:04:31.684Z,100067.28
2017-11-30T19:06:58.296Z,100072.25
2017-11-30T19:09:25.092Z,100068.60
2017-11-30T19:11:50.862Z,100071.95
2017-11-30T19:14:16.632Z,100071.95
2017-11-30T19:16:43.375Z,100073.76
2017-11-30T19:19:09.181Z,100074.44
2017-11-30T19:21:34.955Z,100071.67
2017-11-30T19:24:00.737Z,100076.64
2017-11-30T19:26:26.508Z,100077.02
2017-11-30T19:28:52.282Z,100082.95
2017-11-30T19:31:18.055Z,100078.63
2017-11-30T19:33:43.833Z,100083.70
2017-11-30T19:36:09.607Z,100089.39
2017-11-30T19:38:35.424Z,100093.72
2017-11-30T19:41:01.412Z,100094.20
2017-11-30T19:43:27.227Z,100094.83
2017-11-30T19:45:53.055Z,100098.23
2017-11-30T19:48:18.863Z,100102.09
2017-11-30T19:50:45.484Z,100113.00
2017-11-30T19:53:12.292Z,100110.28
2017-11-30T19:55:38.068Z,100121.05
2017-11-30T19:58:03.879Z,100125.16
2017-11-30T20:00:29.648Z,100122.45
2017-11-30T20:02:55.488Z,100125.51
2017-11-30T20:05:21.265Z,100120.62
2017-11-30T20:07:47.090Z,100126.22
2017-11-30T20:10:12.904Z,100130.30
2017-11-30T20:12:38.684Z,100130.66
2017-11-30T20:15:04.509Z,100121.61
2017-11-30T20:17:30.460Z,100127.95
2017-11-30T20:19:56.316Z,100129.13
2017-11-30T20:22:22.187Z,100126.28
2017-11-30T20:24:48.007Z,100127.05
2017-11-30T20:27:13.830Z,100124.82
2017-11-30T20:29:40.533Z,100130.02
2017-11-30T20:32:06.506Z,100127.54
2017-11-30T20:34:32.270Z,100123.16
2017-11-30T20:36:58.132Z,100132.59
2017-11-30T20:39:23.908Z,100132.60
2017-11-30T20:41:49.688Z,100135.55
2017-11-30T20:44:15.583Z,100137.47
2017-11-30T20:46:41.308Z,100138.71
2017-11-30T20:49:07.927Z,100138.25
2017-11-30T20:51:33.703Z,100138.52
2017-11-30T20:53:59.525Z,100141.50
2017-11-30T20:56:26.110Z,100143.95
2017-11-30T20:58:51.919Z,100138.17
2017-11-30T21:01:17.696Z,100133.51
2017-11-30T21:03:43.503Z,100130.67
2017-11-30T21:06:09.317Z,100133.43
2017-11-30T21:08:35.102Z,100133.51
2017-11-30T21:11:01.047Z,100131.69
2017-11-30T21:13:26.823Z,100135.23
2017-11-30T21:15:53.440Z,100134.21
2017-11-30T21:18:20.240Z,100131.20
2017-11-30T21:20:47.036Z,100138.23
2017-11-30T21:23:12.807Z,100131.09
2017-11-30T21:25:38.588Z,100138.23
2017-11-30T21:28:05.264Z,100139.09
2017-11-30T21:30:31.912Z,100138.72
2017-11-30T21:32:57.683Z,100142.83
2017-11-30T21:35:23.487Z,100145.97
2017-11-30T21:37:49.291Z,100140.54
2017-11-30T21:40:16.113Z,100143.48
2017-11-30T21:42:41.924Z,100143.88
2017-11-30T21:45:07.739Z,100150.07
2017-11-30T21:47:33.517Z,100151.89
2017-11-30T21:49:59.283Z,100154.58
2017-11-30T21:52:25.084Z,100157.86
2017-11-30T21:54:51.707Z,100160.42
2017-11-30T21:57:17.707Z,100164.32
2017-11-30T21:59:43.471Z,100166.47
2017-11-30T22:02:09.236Z,100168.98
2017-11-30T22:04:35.142Z,100168.59
2017-11-30T22:07:00.939Z,100172.89
2017-11-30T22:09:26.855Z,100170.39
2017-11-30T22:11:52.629Z,100175.19
2017-11-30T22:14:18.395Z,100174.20
2017-11-30T22:16:44.987Z,100179.64
2017-11-30T22:19:11.809Z,100174.55
2017-11-30T22:21:37.576Z,100167.95
2017-11-30T22:24:03.632Z,100167.20
2017-11-30T22:26:29.403Z,100171.84
2017-11-30T22:28:55.255Z,100175.66
2017-11-30T22:31:21.071Z,100172.25
2017-11-30T22:33:46.842Z,100175.23
2017-11-30T22:36:12.820Z,100174.90
2017-11-30T22:38:38.600Z,100179.35
2017-11-30T22:41:04.369Z,100187.43
2017-11-30T22:43:30.143Z,100187.50
2017-11-30T22:45:55.997Z,100191.25
2017-11-30T22:48:21.779Z,100188.88
2017-11-30T22:50:47.550Z,100197.66
2017-11-30T22:53:13.324Z,100197.36
2017-11-30T22:55:39.110Z,100199.33
2017-11-30T22:58:04.909Z,100195.84
2017-11-30T23:00:36.811Z,100202.16
2017-11-30T23:03:02.786Z,100207.25
2017-11-30T23:05:28.555Z,100212.12
2017-11-30T23:07:54.326Z,100210.80
2017-11-30T23:10:20.947Z,100213.98
2017-11-30T23:12:47.571Z,100215.30
2017-11-30T23:15:13.343Z,100213.98
2017-11-30T23:17:39.131Z,100218.52
2017-11-30T23:20:05.942Z,100225.76
2017-11-30T23:22:31.771Z,100227.27
2017-11-30T23:24:57.557Z,100227.91
2017-11-30T23:27:23.371Z,100232.86
2017-11-30T23:29:50.158Z,100225.69
2017-11-30T23:32:15.960Z,100231.61
2017-11-30T23:34:42.755Z,100232.14
2017-11-30T23:37:08.704Z,100228.93
2017-11-30T23:39:34.471Z,100236.52
2017-11-30T23:42:01.095Z,100239.91
2017-11-30T23:44:28.019Z,100244.11
2017-11-30T23:46:54.794Z,100243.05
2017-11-30T23:49:20.603Z,100242.94
2017-11-30T23:51:46.415Z,100246.75
2017-11-30T23:54:12.187Z,100239.09
2017-11-30T23:56:37.955Z,100235.27
2017-11-30T23:59:03.731Z,100246.90
